Time;durP1;ratioP1;P1;durP2;ratioP2;P2;SDS_P1;SDS_P2;PMS_P1;PMS_P2;Temp;Humidity;BMP_temperature;BMP_pressure;BME280_temperature;BME280_humidity;BME280_pressure;Samples;Min_cycle;Max_cycle;Signal;HPM_P1;HPM_P2
2022/08/31 00:06:21;;;;;;;7.47;4.30;;;17.70;73.50;;;;;;4972823;28;20076;-78
2022/08/31 00:08:47;;;;;;;6.97;4.40;;;17.70;73.80;;;;;;4975427;28;20133;-78
2022/08/31 00:11:13;;;;;;;9.60;4.32;;;17.70;74.10;;;;;;4977353;28;20491;-78
2022/08/31 00:13:42;;;;;;;7.85;4.35;;;17.70;74.40;;;;;;4977198;28;20043;-78
2022/08/31 00:16:10;;;;;;;8.13;4.60;;;17.60;74.50;;;;;;4977321;28;20039;-79
2022/08/31 00:18:37;;;;;;;10.35;4.45;;;17.60;74.80;;;;;;4985120;28;20033;-78
2022/08/31 00:21:03;;;;;;;8.45;4.50;;;17.60;75.10;;;;;;5004046;28;20046;-78
2022/08/31 00:23:29;;;;;;;8.52;4.82;;;17.60;75.30;;;;;;5004246;28;20030;-79
2022/08/31 00:25:55;;;;;;;8.18;4.85;;;17.50;75.60;;;;;;4998698;28;20103;-80
2022/08/31 00:28:21;;;;;;;8.48;4.63;;;17.60;75.80;;;;;;5000109;28;20041;-79
2022/08/31 00:30:46;;;;;;;7.28;4.63;;;17.50;76.00;;;;;;5000502;28;20465;-81
2022/08/31 00:33:12;;;;;;;8.25;5.20;;;17.50;76.20;;;;;;4993975;28;20068;-79
2022/08/31 00:35:43;;;;;;;7.43;4.53;;;17.50;76.30;;;;;;5003353;28;20115;-80
2022/08/31 00:38:10;;;;;;;21.02;6.35;;;17.50;76.50;;;;;;5002301;28;20038;-79
2022/08/31 00:40:36;;;;;;;8.45;5.95;;;17.40;76.70;;;;;;5000624;28;20031;-80
2022/08/31 00:43:03;;;;;;;9.80;5.55;;;17.30;77.10;;;;;;4996699;28;20389;-78
2022/08/31 00:45:29;;;;;;;9.75;5.78;;;17.30;77.30;;;;;;5001772;28;20041;-79
2022/08/31 00:47:55;;;;;;;10.32;6.03;;;17.40;77.50;;;;;;5035069;28;20048;-80
2022/08/31 00:50:23;;;;;;;9.98;5.40;;;17.30;77.80;;;;;;4993970;28;21934;-78
2022/08/31 00:52:54;;;;;;;10.35;6.07;;;17.30;78.00;;;;;;4997355;28;20134;-78
2022/08/31 00:55:34;;;;;;;8.25;5.80;;;17.20;78.30;;;;;;4984870;28;20128;-78
2022/08/31 00:58:03;;;;;;;12.40;6.38;;;17.20;78.50;;;;;;4991795;28;20041;-78
2022/08/31 01:00:30;;;;;;;9.45;6.38;;;17.20;78.60;;;;;;5003493;28;20054;-78
2022/08/31 01:02:58;;;;;;;11.85;5.82;;;17.20;78.90;;;;;;5001680;28;20039;-78
2022/08/31 01:05:24;;;;;;;11.88;6.35;;;17.20;79.10;;;;;;4986404;28;20081;-78
2022/08/31 01:07:51;;;;;;;10.73;6.35;;;17.10;79.10;;;;;;4999410;28;20072;-78
2022/08/31 01:10:21;;;;;;;9.80;6.47;;;17.10;79.30;;;;;;5001501;28;20121;-79
2022/08/31 01:12:47;;;;;;;12.27;6.72;;;17.10;79.40;;;;;;4999980;28;20297;-78
2022/08/31 01:15:14;;;;;;;9.05;6.43;;;17.10;79.80;;;;;;4998032;28;20037;-79
2022/08/31 01:17:41;;;;;;;11.35;7.25;;;17.10;79.90;;;;;;4993001;28;20039;-78
2022/08/31 01:20:19;;;;;;;10.43;6.97;;;17.10;80.10;;;;;;4996127;28;20038;-81
2022/08/31 01:23:04;;;;;;;10.05;7.00;;;17.00;80.30;;;;;;4995576;28;20672;-81
2022/08/31 01:25:30;;;;;;;9.35;7.35;;;17.00;80.30;;;;;;5002915;28;20038;-78
2022/08/31 01:27:58;;;;;;;11.38;7.13;;;17.00;80.50;;;;;;5003117;28;20040;-78
2022/08/31 01:30:25;;;;;;;12.73;7.63;;;16.90;80.70;;;;;;5001769;28;20044;-78
2022/08/31 01:32:50;;;;;;;12.63;7.85;;;16.90;80.80;;;;;;5005084;28;20079;-78
2022/08/31 01:35:16;;;;;;;10.98;7.72;;;16.90;80.80;;;;;;5008352;28;20050;-78
2022/08/31 01:37:42;;;;;;;11.48;7.65;;;16.90;81.00;;;;;;5006138;28;20041;-78
2022/08/31 01:40:09;;;;;;;11.73;7.70;;;16.90;81.10;;;;;;4997431;28;20026;-81
2022/08/31 01:42:34;;;;;;;11.05;7.57;;;16.80;81.10;;;;;;5006765;28;20559;-78
2022/08/31 01:45:02;;;;;;;11.32;8.13;;;16.80;81.30;;;;;;5003534;28;20120;-79
2022/08/31 01:47:27;;;;;;;11.38;7.80;;;16.80;81.20;;;;;;5004380;28;20038;-79
2022/08/31 01:49:53;;;;;;;12.07;7.97;;;16.80;81.40;;;;;;5004610;28;20022;-78
2022/08/31 01:52:19;;;;;;;11.10;7.80;;;16.80;81.40;;;;;;4996430;28;21029;-78
2022/08/31 01:54:44;;;;;;;14.30;8.50;;;16.80;81.50;;;;;;5006509;28;20068;-78
2022/08/31 01:57:10;;;;;;;10.57;8.10;;;16.80;81.50;;;;;;4992379;28;20049;-81
2022/08/31 01:59:36;;;;;;;11.15;8.25;;;16.70;81.60;;;;;;5008050;28;20030;-80
2022/08/31 02:02:02;;;;;;;12.30;8.30;;;16.70;81.80;;;;;;5002594;28;20057;-78
2022/08/31 02:04:28;;;;;;;11.07;8.27;;;16.70;81.80;;;;;;5001597;28;20042;-78
2022/08/31 02:06:56;;;;;;;14.48;8.98;;;16.70;81.70;;;;;;5015969;28;20033;-78
2022/08/31 02:09:22;;;;;;;11.45;7.97;;;16.70;81.80;;;;;;5007427;28;20046;-80
2022/08/31 02:11:48;;;;;;;11.20;7.55;;;16.60;82.00;;;;;;5004981;28;20462;-78
2022/08/31 02:14:14;;;;;;;11.30;8.48;;;16.60;82.00;;;;;;5004782;28;20049;-78
2022/08/31 02:16:40;;;;;;;13.00;8.73;;;16.60;82.10;;;;;;5005095;28;20018;-78
2022/08/31 02:19:06;;;;;;;13.13;8.32;;;16.60;82.00;;;;;;5006783;28;20034;-78
2022/08/31 02:21:33;;;;;;;11.63;8.35;;;16.60;82.10;;;;;;5005747;28;20026;-78
2022/08/31 02:23:59;;;;;;;10.48;8.57;;;16.60;82.20;;;;;;5008536;28;20034;-78
2022/08/31 02:26:24;;;;;;;11.57;9.07;;;16.50;82.30;;;;;;5005559;28;20022;-78
2022/08/31 02:28:50;;;;;;;10.73;8.63;;;16.50;82.40;;;;;;5006950;28;20022;-79
2022/08/31 02:31:16;;;;;;;11.48;8.98;;;16.60;82.30;;;;;;5006240;28;20669;-79
2022/08/31 02:33:43;;;;;;;11.38;8.23;;;16.50;82.20;;;;;;5003854;28;20018;-81
2022/08/31 02:36:08;;;;;;;10.50;8.15;;;16.60;82.20;;;;;;5005127;28;20103;-79
2022/08/31 02:38:35;;;;;;;11.38;7.93;;;16.50;82.10;;;;;;5004954;28;20050;-78
2022/08/31 02:41:01;;;;;;;11.82;8.07;;;16.50;82.10;;;;;;4996182;28;20042;-79
2022/08/31 02:43:27;;;;;;;11.95;9.10;;;16.50;82.30;;;;;;4996318;28;20120;-81
2022/08/31 02:45:52;;;;;;;12.68;8.70;;;16.50;82.40;;;;;;5008908;28;20117;-79
2022/08/31 02:48:18;;;;;;;12.45;8.82;;;16.50;82.40;;;;;;4996508;28;20049;-79
2022/08/31 02:50:48;;;;;;;13.70;8.70;;;16.40;82.40;;;;;;4996447;28;20038;-79
2022/08/31 02:53:16;;;;;;;11.45;9.45;;;16.40;82.40;;;;;;5008509;28;20032;-79
2022/08/31 02:55:42;;;;;;;11.57;8.73;;;16.40;82.40;;;;;;5009651;28;20081;-79
2022/08/31 02:58:09;;;;;;;15.35;8.88;;;16.40;82.50;;;;;;5001525;28;20045;-81
2022/08/31 03:00:36;;;;;;;13.15;9.20;;;16.40;82.50;;;;;;4997530;28;20057;-79
2022/08/31 03:03:02;;;;;;;12.55;8.75;;;16.40;82.50;;;;;;5000699;28;20033;-78
2022/08/31 03:05:28;;;;;;;13.40;8.93;;;16.40;82.50;;;;;;4998814;28;20415;-79
2022/08/31 03:07:54;;;;;;;13.43;10.02;;;16.40;82.60;;;;;;4996946;28;20168;-80
2022/08/31 03:10:22;;;;;;;11.52;8.98;;;16.40;82.50;;;;;;4998050;28;20425;-79
2022/08/31 03:12:48;;;;;;;11.02;9.13;;;16.40;82.60;;;;;;4993155;28;20057;-81
2022/08/31 03:15:15;;;;;;;12.43;9.27;;;16.30;82.60;;;;;;5000514;28;20362;-79
2022/08/31 03:17:41;;;;;;;13.25;9.77;;;16.30;82.70;;;;;;5001421;28;20117;-79
2022/08/31 03:20:08;;;;;;;10.77;9.00;;;16.30;82.70;;;;;;5034459;28;20042;-81
2022/08/31 03:22:34;;;;;;;12.55;8.77;;;16.30;82.60;;;;;;5001341;28;20021;-79
2022/08/31 03:25:00;;;;;;;13.05;9.25;;;16.30;82.70;;;;;;4999064;28;20038;-79
2022/08/31 03:27:29;;;;;;;11.88;9.25;;;16.30;82.80;;;;;;5003135;28;20481;-79
2022/08/31 03:29:55;;;;;;;12.07;9.20;;;16.30;82.90;;;;;;4991672;28;20034;-81
2022/08/31 03:32:21;;;;;;;13.27;9.23;;;16.20;82.90;;;;;;5018475;28;20033;-78
2022/08/31 03:34:46;;;;;;;12.65;8.75;;;16.20;83.00;;;;;;5001542;28;20348;-79
2022/08/31 03:37:13;;;;;;;12.65;9.02;;;16.20;82.90;;;;;;4998873;28;20030;-79
2022/08/31 03:39:38;;;;;;;17.77;9.82;;;16.20;82.90;;;;;;5004697;28;20029;-79
2022/08/31 03:42:05;;;;;;;15.95;9.32;;;16.10;83.00;;;;;;4999657;28;20034;-79
2022/08/31 03:44:32;;;;;;;13.63;9.27;;;16.10;83.00;;;;;;4996341;28;20113;-79
2022/08/31 03:46:59;;;;;;;14.70;9.75;;;16.10;83.00;;;;;;5003304;28;20030;-79
2022/08/31 03:49:25;;;;;;;11.55;9.23;;;16.10;83.10;;;;;;5001528;28;20029;-78
2022/08/31 03:51:51;;;;;;;9.63;8.40;;;16.10;83.20;;;;;;5004055;28;20022;-78
2022/08/31 03:54:17;;;;;;;12.48;8.93;;;16.10;83.30;;;;;;5000429;28;20588;-79
2022/08/31 03:56:43;;;;;;;12.55;9.30;;;16.10;83.40;;;;;;4995606;28;20345;-78
2022/08/31 03:59:09;;;;;;;14.38;9.77;;;16.00;83.60;;;;;;5000114;28;20022;-79
2022/08/31 04:01:35;;;;;;;12.80;9.30;;;16.00;83.60;;;;;;4994105;28;20030;-79
2022/08/31 04:04:02;;;;;;;12.20;9.30;;;16.00;83.70;;;;;;5000901;28;20022;-78
2022/08/31 04:06:28;;;;;;;12.00;9.65;;;16.00;83.80;;;;;;4992800;28;20030;-79
2022/08/31 04:08:54;;;;;;;12.63;9.25;;;15.90;83.70;;;;;;5004142;28;20492;-79
2022/08/31 04:11:20;;;;;;;11.25;9.00;;;15.90;83.90;;;;;;5006548;28;20026;-78
2022/08/31 04:13:47;;;;;;;12.07;8.90;;;15.90;83.90;;;;;;4996306;28;20042;-78
2022/08/31 04:16:19;;;;;;;12.05;9.20;;;15.90;83.90;;;;;;5034628;28;20092;-79
2022/08/31 04:18:46;;;;;;;13.20;9.38;;;15.90;83.80;;;;;;4999275;28;20030;-79
2022/08/31 04:21:21;;;;;;;13.32;9.38;;;15.90;83.80;;;;;;5001533;28;20465;-79
2022/08/31 04:23:48;;;;;;;13.85;9.63;;;15.90;83.90;;;;;;4997442;28;20042;-78
2022/08/31 04:26:21;;;;;;;11.18;8.52;;;15.90;83.90;;;;;;4998024;28;20427;-78
2022/08/31 04:28:47;;;;;;;10.05;8.48;;;15.90;83.80;;;;;;5001798;28;20031;-79
2022/08/31 04:31:14;;;;;;;11.40;8.82;;;15.90;83.70;;;;;;5003022;28;20049;-77
2022/08/31 04:33:40;;;;;;;14.93;8.80;;;15.90;83.70;;;;;;5004228;28;20022;-78
2022/08/31 04:36:12;;;;;;;10.40;8.93;;;15.80;83.70;;;;;;5001429;28;20053;-78
2022/08/31 04:38:40;;;;;;;12.38;8.75;;;15.80;83.80;;;;;;5000511;28;20398;-79
2022/08/31 04:41:10;;;;;;;13.27;8.90;;;15.80;83.80;;;;;;5002527;28;20072;-78
2022/08/31 04:43:38;;;;;;;11.60;8.95;;;15.80;83.80;;;;;;4998956;28;20069;-78
2022/08/31 04:46:05;;;;;;;12.32;9.23;;;15.80;83.90;;;;;;4999708;28;20046;-79
2022/08/31 04:48:31;;;;;;;11.10;8.30;;;15.80;83.90;;;;;;4999721;28;20026;-78
2022/08/31 04:51:04;;;;;;;11.05;8.50;;;15.80;84.00;;;;;;4998618;28;20064;-80
2022/08/31 04:53:29;;;;;;;13.88;8.48;;;15.80;83.90;;;;;;5021642;28;20042;-79
2022/08/31 04:55:55;;;;;;;13.60;8.27;;;15.70;83.80;;;;;;4995887;28;20383;-78
2022/08/31 04:58:22;;;;;;;10.88;8.90;;;15.70;83.90;;;;;;4998165;28;20038;-78
2022/08/31 05:00:50;;;;;;;11.43;8.60;;;15.70;84.00;;;;;;5008190;28;20037;-78
2022/08/31 05:03:16;;;;;;;12.23;8.80;;;15.80;83.80;;;;;;5000755;28;20429;-78
2022/08/31 05:05:45;;;;;;;10.13;8.30;;;15.70;83.80;;;;;;4996647;28;20034;-78
2022/08/31 05:08:11;;;;;;;11.45;8.05;;;15.70;83.90;;;;;;4998313;28;20489;-78
2022/08/31 05:10:39;;;;;;;11.48;8.70;;;15.60;84.00;;;;;;5001218;28;20038;-78
2022/08/31 05:13:05;;;;;;;11.43;8.77;;;15.70;84.00;;;;;;5002271;28;20104;-78
2022/08/31 05:15:31;;;;;;;13.40;8.95;;;15.60;84.10;;;;;;5005315;28;20485;-78
2022/08/31 05:17:57;;;;;;;10.75;7.90;;;15.70;84.00;;;;;;5005345;28;20052;-78
2022/08/31 05:20:23;;;;;;;11.32;8.70;;;15.70;83.90;;;;;;5000763;28;20026;-78
2022/08/31 05:22:49;;;;;;;11.32;8.57;;;15.70;83.90;;;;;;4998329;28;20018;-79
2022/08/31 05:25:15;;;;;;;12.25;7.93;;;15.70;83.80;;;;;;4999919;28;20045;-78
2022/08/31 05:27:41;;;;;;;12.00;8.43;;;15.80;83.60;;;;;;5008218;28;20018;-78
2022/08/31 05:30:07;;;;;;;10.88;7.70;;;15.80;83.50;;;;;;5001403;28;20108;-78
2022/08/31 05:32:33;;;;;;;14.80;8.35;;;15.80;83.50;;;;;;4999460;28;20026;-78
2022/08/31 05:34:59;;;;;;;13.00;8.55;;;15.80;83.30;;;;;;5008441;28;20034;-78
2022/08/31 05:37:25;;;;;;;12.05;8.43;;;15.90;83.30;;;;;;5006031;28;20037;-78
2022/08/31 05:39:51;;;;;;;10.95;8.55;;;15.80;83.50;;;;;;5005774;28;20846;-78
2022/08/31 05:42:18;;;;;;;13.18;8.45;;;15.90;83.40;;;;;;4989908;28;20023;-78
2022/08/31 05:44:44;;;;;;;11.57;8.25;;;15.90;83.30;;;;;;5034106;28;20046;-78
2022/08/31 05:47:10;;;;;;;9.75;7.63;;;15.90;83.20;;;;;;4999091;28;20408;-78
2022/08/31 05:49:36;;;;;;;12.57;8.07;;;15.90;83.20;;;;;;5004145;28;20022;-78
2022/08/31 05:52:03;;;;;;;12.05;8.48;;;16.00;83.20;;;;;;5006056;28;20026;-78
2022/08/31 05:54:32;;;;;;;13.13;7.97;;;16.10;83.00;;;;;;4994914;28;20466;-78
2022/08/31 05:56:57;;;;;;;11.35;8.75;;;16.10;82.80;;;;;;5002399;28;20493;-78
2022/08/31 05:59:23;;;;;;;11.48;8.20;;;16.10;82.50;;;;;;5003213;28;20029;-78
2022/08/31 06:01:49;;;;;;;9.30;8.00;;;16.10;82.40;;;;;;5006103;28;20057;-78
2022/08/31 06:04:14;;;;;;;10.25;8.20;;;16.20;82.20;;;;;;4998321;28;20030;-78
2022/08/31 06:06:40;;;;;;;11.82;7.65;;;16.30;82.20;;;;;;5006296;28;20037;-78
2022/08/31 06:09:07;;;;;;;11.43;8.13;;;16.30;81.90;;;;;;5005141;28;20050;-77
2022/08/31 06:11:33;;;;;;;11.10;8.18;;;16.40;81.80;;;;;;4995482;28;20044;-78
2022/08/31 06:14:02;;;;;;;13.52;8.20;;;16.40;81.40;;;;;;5004557;28;20069;-78
2022/08/31 06:16:29;;;;;;;10.05;7.18;;;16.50;81.40;;;;;;5004040;28;20037;-79
2022/08/31 06:18:57;;;;;;;11.45;8.07;;;16.60;81.20;;;;;;5012992;28;20550;-78
2022/08/31 06:21:29;;;;;;;10.65;8.00;;;16.60;80.90;;;;;;5002186;28;20028;-78
2022/08/31 06:23:56;;;;;;;10.82;7.53;;;16.60;80.80;;;;;;4996826;28;20077;-78
2022/08/31 06:26:24;;;;;;;10.13;7.18;;;16.70;80.60;;;;;;5002428;28;20396;-78
2022/08/31 06:28:55;;;;;;;12.85;7.80;;;16.80;80.20;;;;;;5014974;28;20050;-77
2022/08/31 06:31:31;;;;;;;11.90;7.32;;;17.00;79.90;;;;;;5003538;28;20473;-78
2022/08/31 06:33:58;;;;;;;13.05;7.30;;;17.20;79.50;;;;;;5007221;28;20125;-78
2022/08/31 06:36:28;;;;;;;10.68;7.45;;;17.20;78.90;;;;;;5005071;28;20029;-78
2022/08/31 06:38:56;;;;;;;12.48;7.55;;;17.30;78.60;;;;;;5006479;28;20026;-79
2022/08/31 06:41:34;;;;;;;15.77;8.15;;;17.40;78.10;;;;;;5007664;28;20045;-79
2022/08/31 06:44:03;;;;;;;13.93;7.95;;;17.50;77.40;;;;;;5008277;28;20034;-79
2022/08/31 06:46:32;;;;;;;13.82;8.45;;;17.50;77.40;;;;;;5002148;28;20599;-79
2022/08/31 06:48:58;;;;;;;14.85;7.63;;;17.40;77.10;;;;;;5005355;28;20070;-79
2022/08/31 06:51:24;;;;;;;15.82;8.52;;;17.50;77.40;;;;;;5001968;28;20059;-81
2022/08/31 06:53:51;;;;;;;11.55;7.78;;;17.50;77.50;;;;;;5000938;28;20027;-78
2022/08/31 06:56:20;;;;;;;11.35;7.80;;;17.50;77.30;;;;;;5007547;28;20054;-78
2022/08/31 06:58:48;;;;;;;15.35;8.55;;;17.60;77.60;;;;;;5001865;28;20029;-78
2022/08/31 07:01:17;;;;;;;13.75;7.85;;;17.50;76.90;;;;;;5004165;28;20085;-79
2022/08/31 07:03:44;;;;;;;14.45;8.10;;;17.60;76.90;;;;;;5005817;28;20026;-79
2022/08/31 07:06:21;;;;;;;13.00;7.68;;;17.50;77.20;;;;;;5008245;28;20030;-78
2022/08/31 07:08:51;;;;;;;14.40;7.45;;;17.60;77.00;;;;;;5000542;28;20092;-79
2022/08/31 07:11:19;;;;;;;11.30;7.70;;;17.80;76.60;;;;;;4998041;28;20029;-78
2022/08/31 07:13:46;;;;;;;12.80;7.78;;;17.80;76.20;;;;;;5005137;28;20033;-78
2022/08/31 07:16:15;;;;;;;11.02;7.60;;;17.80;76.00;;;;;;5000107;28;20034;-78
2022/08/31 07:18:41;;;;;;;15.02;7.70;;;17.90;75.90;;;;;;4997711;28;20567;-78
2022/08/31 07:21:16;;;;;;;13.85;7.95;;;18.00;75.60;;;;;;5003702;28;20609;-78
2022/08/31 07:23:43;;;;;;;12.10;8.10;;;18.00;75.40;;;;;;5003047;28;20421;-77
2022/08/31 07:26:13;;;;;;;11.30;7.78;;;17.90;75.40;;;;;;4997443;28;20116;-78
2022/08/31 07:28:43;;;;;;;16.38;7.90;;;17.90;75.50;;;;;;5001859;28;20110;-78
2022/08/31 07:31:10;;;;;;;13.23;7.88;;;18.10;75.40;;;;;;5001113;28;20046;-80
2022/08/31 07:33:40;;;;;;;10.75;7.75;;;18.30;75.20;;;;;;5002102;28;20064;-78
2022/08/31 07:36:11;;;;;;;15.07;8.90;;;18.50;73.80;;;;;;5001532;28;20068;-79
2022/08/31 07:44:01;;;;;;;11.88;7.07;;;19.10;71.40;;;;;;5004850;28;20049;-79
2022/08/31 07:46:30;;;;;;;12.93;7.45;;;19.20;71.10;;;;;;4996844;28;20034;-81
2022/08/31 07:48:57;;;;;;;12.05;8.25;;;19.30;69.90;;;;;;4996407;28;20042;-81
2022/08/31 07:51:23;;;;;;;16.90;7.63;;;19.40;69.70;;;;;;4997962;28;20033;-78
2022/08/31 07:53:51;;;;;;;13.00;7.93;;;19.50;69.30;;;;;;4994500;28;20180;-79
2022/08/31 07:56:17;;;;;;;13.82;8.52;;;19.70;68.60;;;;;;4998767;28;20470;-79
2022/08/31 07:58:44;;;;;;;13.27;7.78;;;19.80;67.90;;;;;;5000297;28;20121;-79
2022/08/31 08:01:10;;;;;;;12.75;7.53;;;19.80;67.70;;;;;;4996677;28;20030;-85
2022/08/31 08:03:39;;;;;;;11.98;6.68;;;20.00;67.40;;;;;;4996941;28;20323;-79
2022/08/31 08:06:08;;;;;;;12.65;7.70;;;20.10;67.60;;;;;;4995356;28;20136;-80
2022/08/31 08:08:34;;;;;;;13.27;7.85;;;20.10;65.80;;;;;;4994697;28;20539;-81
2022/08/31 08:11:00;;;;;;;12.75;7.47;;;20.10;66.40;;;;;;4992854;28;20113;-79
2022/08/31 08:13:25;;;;;;;14.43;7.88;;;20.10;66.20;;;;;;5012747;28;20615;-78
2022/08/31 08:15:51;;;;;;;13.45;8.32;;;20.10;66.00;;;;;;4988546;28;20042;-79
2022/08/31 08:18:17;;;;;;;10.68;8.02;;;19.90;65.80;;;;;;4983394;28;20467;-80
2022/08/31 08:20:42;;;;;;;12.60;7.45;;;19.90;65.80;;;;;;4979582;28;20053;-77
2022/08/31 08:23:11;;;;;;;10.52;6.85;;;19.90;65.60;;;;;;4974116;28;20042;-80
2022/08/31 08:25:36;;;;;;;11.93;7.20;;;20.10;66.30;;;;;;4976045;28;20030;-80
2022/08/31 08:28:02;;;;;;;12.40;6.45;;;20.30;65.80;;;;;;4976936;28;20077;-78
2022/08/31 08:30:28;;;;;;;10.70;6.72;;;20.60;64.30;;;;;;4992590;28;20513;-80
2022/08/31 08:32:54;;;;;;;9.95;6.50;;;20.50;63.70;;;;;;4984693;28;20179;-80
2022/08/31 08:35:19;;;;;;;14.18;6.32;;;20.60;64.20;;;;;;4980518;28;20501;-80
2022/08/31 08:37:46;;;;;;;12.82;6.80;;;20.40;64.50;;;;;;4982087;28;20033;-80
2022/08/31 08:40:36;;;;;;;10.88;5.82;;;20.60;63.30;;;;;;4984564;28;20034;-79
2022/08/31 08:43:03;;;;;;;10.00;5.80;;;20.40;63.70;;;;;;4978342;28;20027;-79
2022/08/31 08:45:30;;;;;;;11.25;5.35;;;20.80;63.10;;;;;;4977140;28;20043;-79
2022/08/31 08:47:57;;;;;;;9.93;5.68;;;21.10;62.10;;;;;;4976136;28;20042;-79
2022/08/31 08:50:26;;;;;;;12.45;5.15;;;20.90;61.50;;;;;;4977202;28;20498;-80
2022/08/31 08:52:56;;;;;;;10.05;5.15;;;21.20;62.00;;;;;;4980902;28;20035;-80
2022/08/31 08:55:37;;;;;;;8.98;4.82;;;21.40;60.90;;;;;;4999811;28;20073;-80
2022/08/31 08:58:10;;;;;;;12.23;5.00;;;21.20;61.00;;;;;;4982844;28;20363;-79
2022/08/31 09:00:37;;;;;;;12.35;5.35;;;21.30;61.50;;;;;;5013593;28;20419;-77
2022/08/31 09:03:29;;;;;;;13.05;4.93;;;21.20;61.30;;;;;;4973196;28;20458;-81
2022/08/31 09:06:27;;;;;;;8.75;5.03;;;20.90;61.70;;;;;;4998266;28;20047;-79
2022/08/31 09:08:53;;;;;;;9.93;4.63;;;21.00;61.40;;;;;;4962276;28;20038;-78
2022/08/31 09:11:40;;;;;;;9.73;5.30;;;21.10;61.80;;;;;;4985196;28;20124;-80
2022/08/31 09:14:25;;;;;;;10.50;5.65;;;21.60;60.30;;;;;;4990916;28;20128;-79
2022/08/31 09:17:06;;;;;;;;;;;21.80;59.20;;;;;;4980975;28;20061;-79
2022/08/31 09:19:57;;;;;;;12.30;5.50;;;22.10;58.20;;;;;;4983072;28;20420;-79
2022/08/31 09:22:18;;;;;;;12.07;5.57;;;22.10;58.20;;;;;;4977969;28;20042;-80
2022/08/31 09:24:47;;;;;;;16.27;5.47;;;22.50;57.60;;;;;;4979637;28;20565;-80
2022/08/31 09:27:19;;;;;;;10.48;5.40;;;22.30;57.70;;;;;;4993284;28;20027;-79
2022/08/31 09:29:52;;;;;;;11.95;4.88;;;22.40;57.20;;;;;;5001457;28;20031;-79
2022/08/31 09:32:22;;;;;;;10.35;4.72;;;22.60;56.70;;;;;;5005816;28;20186;-79
2022/08/31 09:35:00;;;;;;;10.23;4.45;;;22.60;57.80;;;;;;4979655;28;20752;-79
2022/08/31 09:37:32;;;;;;;9.40;4.70;;;22.70;55.90;;;;;;4984648;28;20031;-79
2022/08/31 09:40:13;;;;;;;8.23;4.43;;;22.70;56.30;;;;;;4989594;28;20621;-80
2022/08/31 09:42:40;;;;;;;10.15;4.50;;;22.40;57.20;;;;;;4974696;28;20045;-79
2022/08/31 09:45:34;;;;;;;13.27;4.32;;;22.50;56.40;;;;;;4981539;28;20398;-78
2022/08/31 09:48:02;;;;;;;10.45;4.38;;;22.40;57.10;;;;;;4981315;28;20432;-81
2022/08/31 09:50:46;;;;;;;8.68;4.60;;;22.70;56.50;;;;;;4969284;28;20501;-80
2022/08/31 09:56:12;;;;;;;9.95;4.30;;;22.70;55.80;;;;;;4975304;28;20081;-82
2022/08/31 09:58:42;;;;;;;10.48;4.47;;;23.00;55.70;;;;;;4977299;28;20027;-82
2022/08/31 10:01:19;;;;;;;9.65;3.85;;;23.10;54.40;;;;;;4978542;28;20042;-81
2022/08/31 10:03:46;;;;;;;9.88;3.92;;;23.10;55.70;;;;;;4984851;28;20470;-84
2022/08/31 10:06:47;;;;;;;9.27;4.40;;;23.10;55.10;;;;;;4979823;28;20027;-81
2022/08/31 10:09:21;;;;;;;8.77;4.63;;;23.00;54.30;;;;;;4983990;28;20038;-83
2022/08/31 10:11:49;;;;;;;9.32;4.30;;;22.80;54.30;;;;;;4979645;28;20144;-79
2022/08/31 10:14:28;;;;;;;9.00;4.63;;;23.00;54.40;;;;;;4979108;28;20038;-80
2022/08/31 10:17:02;;;;;;;7.65;3.90;;;23.10;54.30;;;;;;4985892;28;20045;-82
2022/08/31 10:19:52;;;;;;;10.30;4.63;;;23.20;54.20;;;;;;4977906;28;20035;-80
2022/08/31 10:22:42;;;;;;;9.68;4.53;;;22.90;54.70;;;;;;4975240;28;20070;-79
2022/08/31 10:25:20;;;;;;;12.02;4.63;;;22.90;54.70;;;;;;4977116;28;20549;-80
2022/08/31 10:27:53;;;;;;;9.75;4.20;;;23.10;54.20;;;;;;4972134;28;20050;-82
2022/08/31 10:30:33;;;;;;;8.00;4.25;;;23.10;53.80;;;;;;4977592;28;20046;-81
2022/08/31 10:33:24;;;;;;;8.38;3.95;;;22.80;54.70;;;;;;4969583;28;20034;-81
2022/08/31 10:35:57;;;;;;;13.25;4.50;;;23.30;54.10;;;;;;4977474;28;20491;-82
2022/08/31 10:38:40;;;;;;;10.57;4.20;;;23.70;52.80;;;;;;4981632;28;20141;-80
2022/08/31 10:41:27;;;;;;;9.48;4.03;;;23.60;52.90;;;;;;5014271;28;20038;-80
2022/08/31 10:44:22;;;;;;;10.00;4.18;;;23.90;52.20;;;;;;4975423;28;20149;-81
2022/08/31 10:46:53;;;;;;;9.05;4.38;;;23.50;53.00;;;;;;4990938;28;20045;-80
2022/08/31 10:49:20;;;;;;;7.43;3.95;;;23.90;52.10;;;;;;4991977;28;20112;-81
2022/08/31 10:52:09;;;;;;;10.48;4.65;;;23.70;52.20;;;;;;4990273;28;20482;-80
2022/08/31 10:54:40;;;;;;;9.05;4.20;;;23.70;52.30;;;;;;4988783;28;20050;-79
2022/08/31 10:57:40;;;;;;;9.48;4.22;;;23.70;52.20;;;;;;5021454;28;20030;-79
2022/08/31 11:00:40;;;;;;;9.32;4.60;;;23.80;52.00;;;;;;4991322;28;20034;-81
2022/08/31 11:03:03;;;;;;;8.77;3.90;;;23.50;52.40;;;;;;4990786;28;20030;-80
2022/08/31 11:05:39;;;;;;;10.85;4.25;;;23.30;53.30;;;;;;4990401;28;20050;-83
2022/08/31 11:08:32;;;;;;;8.35;4.15;;;23.40;52.80;;;;;;4989590;28;20467;-82
2022/08/31 11:10:58;;;;;;;12.13;4.63;;;23.40;53.30;;;;;;4995652;28;20130;-83
2022/08/31 11:13:47;;;;;;;7.95;4.55;;;23.20;53.10;;;;;;4992133;28;20050;-85
2022/08/31 11:16:38;;;;;;;8.48;3.90;;;23.20;53.30;;;;;;4989547;28;20133;-82
2022/08/31 11:19:13;;;;;;;9.13;4.07;;;23.30;53.90;;;;;;4989757;28;20478;-84
2022/08/31 11:22:11;;;;;;;6.88;4.18;;;23.50;53.20;;;;;;4992263;28;20046;-81
2022/08/31 11:25:02;;;;;;;9.25;4.40;;;23.50;53.00;;;;;;4993764;28;20061;-83
2022/08/31 11:27:36;;;;;;;12.05;4.28;;;23.40;52.90;;;;;;4991313;28;20557;-82
2022/08/31 11:30:09;;;;;;;9.73;4.20;;;23.50;52.80;;;;;;4991778;28;20038;-81
2022/08/31 11:33:06;;;;;;;11.93;4.40;;;23.70;52.50;;;;;;4989610;28;20034;-81
2022/08/31 11:35:48;;;;;;;12.07;5.00;;;23.80;52.00;;;;;;4988312;28;20096;-82
2022/08/31 11:38:39;;;;;;;9.52;4.00;;;24.00;51.20;;;;;;4988760;28;20042;-80
2022/08/31 11:41:09;;;;;;;10.70;3.60;;;24.10;51.50;;;;;;4989820;28;20489;-81
2022/08/31 11:43:35;;;;;;;7.22;3.42;;;24.40;51.30;;;;;;4990303;28;20046;-83
2022/08/31 11:46:23;;;;;;;8.18;4.18;;;24.60;50.60;;;;;;4990282;28;20038;-83
2022/08/31 11:48:50;;;;;;;6.65;4.20;;;25.00;49.00;;;;;;5020004;28;20035;-82
2022/08/31 11:51:40;;;;;;;8.88;4.03;;;24.70;49.50;;;;;;4990833;28;20080;-82
2022/08/31 11:54:36;;;;;;;8.90;3.30;;;24.60;50.50;;;;;;4990113;28;20100;-81
2022/08/31 11:57:04;;;;;;;9.35;3.63;;;25.00;49.30;;;;;;4976208;28;20046;-84
2022/08/31 11:59:40;;;;;;;10.43;5.18;;;25.00;49.20;;;;;;4988724;28;20113;-85
2022/08/31 12:02:18;;;;;;;9.07;4.20;;;24.50;49.60;;;;;;4990606;28;20077;-84
2022/08/31 12:04:57;;;;;;;9.05;4.18;;;24.20;50.20;;;;;;4994395;28;20049;-84
2022/08/31 12:07:29;;;;;;;7.88;4.18;;;24.30;50.50;;;;;;4996974;28;20033;-83
2022/08/31 12:10:19;;;;;;;9.00;4.43;;;24.00;50.60;;;;;;5001876;28;20545;-83
2022/08/31 12:13:01;;;;;;;6.85;3.97;;;23.90;50.70;;;;;;5000077;28;20125;-82
2022/08/31 12:16:05;;;;;;;6.40;4.13;;;24.40;51.10;;;;;;5004649;28;20093;-80
2022/08/31 12:18:39;;;;;;;8.15;3.92;;;24.80;48.80;;;;;;4998541;28;20098;-79
2022/08/31 12:24:16;;;;;;;9.63;4.57;;;24.90;50.30;;;;;;4992326;28;20073;-79
2022/08/31 12:26:51;;;;;;;12.10;4.20;;;25.40;48.30;;;;;;4998314;28;20034;-79
2022/08/31 12:29:21;;;;;;;11.02;4.40;;;25.50;47.30;;;;;;5002699;28;20038;-79
2022/08/31 12:32:45;;;;;;;8.50;4.13;;;25.50;47.50;;;;;;4998334;28;20052;-80
2022/08/31 12:35:21;;;;;;;9.35;4.47;;;25.60;47.90;;;;;;4958347;28;20042;-79
2022/08/31 12:37:59;;;;;;;7.85;4.63;;;25.80;46.40;;;;;;5007117;28;20030;-80
2022/08/31 12:40:28;;;;;;;14.88;4.70;;;25.40;47.40;;;;;;5008283;28;20037;-80
2022/08/31 12:42:56;;;;;;;10.43;4.43;;;25.40;47.90;;;;;;5005946;28;20025;-80
2022/08/31 12:45:32;;;;;;;7.90;4.85;;;25.30;47.90;;;;;;5004995;28;20593;-79
2022/08/31 12:48:26;;;;;;;6.50;3.67;;;25.50;47.20;;;;;;5019195;28;20061;-80
2022/08/31 12:51:02;;;;;;;8.77;4.03;;;25.60;47.50;;;;;;4981709;28;20038;-79
2022/08/31 12:54:00;;;;;;;11.60;4.47;;;25.30;47.50;;;;;;4998078;28;20022;-79
2022/08/31 12:56:34;;;;;;;11.55;4.15;;;25.20;48.00;;;;;;4974278;28;20046;-78
2022/08/31 12:59:16;;;;;;;7.28;4.47;;;25.60;47.50;;;;;;4993474;28;20528;-82
2022/08/31 13:01:47;;;;;;;10.70;4.78;;;25.80;47.80;;;;;;4994745;28;20042;-79
2022/08/31 13:04:18;;;;;;;11.18;5.20;;;25.90;46.30;;;;;;4991690;28;20034;-80
2022/08/31 13:06:47;;;;;;;8.13;4.07;;;25.40;47.00;;;;;;4996940;28;20080;-80
2022/08/31 13:09:25;;;;;;;9.70;5.30;;;25.40;48.20;;;;;;4997634;28;20176;-81
2022/08/31 13:11:55;;;;;;;8.88;4.70;;;25.50;47.40;;;;;;4994913;28;20049;-81
2022/08/31 13:14:25;;;;;;;10.27;4.50;;;25.30;48.20;;;;;;4990723;28;20030;-79
2022/08/31 13:17:13;;;;;;;9.43;4.25;;;25.80;47.40;;;;;;4992682;28;20082;-82